createdAt,value
2018-09-19T00:02:17.109Z,96700.59
2018-09-19T00:04:45.747Z,96683.92
2018-09-19T00:07:14.071Z,96697.00
2018-09-19T00:09:42.422Z,96695.34
2018-09-19T00:12:10.855Z,96693.80
2018-09-19T00:14:39.175Z,96697.62
2018-09-19T00:17:07.581Z,96694.33
2018-09-19T00:19:36.028Z,96686.37
2018-09-19T00:22:04.363Z,96685.46
2018-09-19T00:24:32.699Z,96689.56
2018-09-19T00:27:01.083Z,96689.56
2018-09-19T00:29:29.427Z,96693.38
2018-09-19T00:31:57.855Z,96696.55
2018-09-19T00:34:26.275Z,96699.94
2018-09-19T00:36:54.721Z,96695.63
2018-09-19T00:39:23.046Z,96695.30
2018-09-19T00:41:51.447Z,96705.48
2018-09-19T00:44:19.910Z,96701.70
2018-09-19T00:46:48.249Z,96719.27
2018-09-19T00:49:16.650Z,96707.05
2018-09-19T00:51:45.094Z,96719.38
2018-09-19T00:54:13.632Z,96716.17
2018-09-19T00:56:42.098Z,96716.41
2018-09-19T00:59:10.506Z,96710.63
2018-09-19T01:01:38.904Z,96702.28
2018-09-19T01:04:07.262Z,96703.95
2018-09-19T01:06:35.591Z,96708.15
2018-09-19T01:09:04.924Z,96702.48
2018-09-19T01:11:33.419Z,96695.50
2018-09-19T01:14:01.750Z,96700.52
2018-09-19T01:16:30.084Z,96699.19
2018-09-19T01:18:58.470Z,96699.41
2018-09-19T01:21:27.027Z,96705.57
2018-09-19T01:23:55.451Z,96709.06
2018-09-19T01:26:23.859Z,96716.56
2018-09-19T01:28:52.212Z,96707.43
2018-09-19T01:31:20.540Z,96714.30
2018-09-19T01:33:48.985Z,96715.45
2018-09-19T01:36:17.328Z,96714.93
2018-09-19T01:38:45.672Z,96712.88
2018-09-19T01:41:14.047Z,96719.23
2018-09-19T01:43:42.476Z,96728.10
2018-09-19T01:46:10.925Z,96720.90
2018-09-19T01:48:39.309Z,96713.89
2018-09-19T01:51:08.295Z,96712.55
2018-09-19T01:53:36.693Z,96709.69
2018-09-19T01:56:05.292Z,96714.84
2018-09-19T01:58:33.623Z,96712.78
2018-09-19T02:01:01.992Z,96721.75
2018-09-19T02:03:30.349Z,96721.75
2018-09-19T02:05:58.679Z,96738.52
2018-09-19T02:08:27.072Z,96746.97
2018-09-19T02:10:55.451Z,96771.77
2018-09-19T02:13:23.828Z,96778.88
2018-09-19T02:15:52.276Z,96772.29
2018-09-19T02:18:20.588Z,96763.16
2018-09-19T02:20:48.932Z,96757.09
2018-09-19T02:23:17.335Z,96733.31
2018-09-19T02:25:45.745Z,96740.00
2018-09-19T02:28:14.144Z,96747.11
2018-09-19T02:30:42.579Z,96749.06
2018-09-19T02:33:11.182Z,96741.04
2018-09-19T02:35:39.535Z,96733.11
2018-09-19T02:38:07.918Z,96733.63
2018-09-19T02:40:36.332Z,96728.68
2018-09-19T02:43:05.959Z,96719.94
2018-09-19T02:45:34.304Z,96716.31
2018-09-19T02:48:02.697Z,96718.89
2018-09-19T02:50:31.051Z,96718.89
2018-09-19T02:52:59.415Z,96722.91
2018-09-19T02:55:27.796Z,96707.96
2018-09-19T02:57:56.174Z,96715.78
2018-09-19T03:00:24.536Z,96712.55
2018-09-19T03:02:53.007Z,96713.27
2018-09-19T03:05:21.414Z,96720.38
2018-09-19T03:07:49.791Z,96721.90
2018-09-19T03:10:18.239Z,96718.19
2018-09-19T03:12:46.669Z,96729.53
2018-09-19T03:15:14.999Z,96730.78
2018-09-19T03:17:43.704Z,96737.17
2018-09-19T03:20:11.815Z,96732.45
2018-09-19T03:22:40.157Z,96735.75
2018-09-19T03:25:08.772Z,96729.88
2018-09-19T03:27:37.291Z,96739.95
2018-09-19T03:30:06.241Z,96741.91
2018-09-19T03:32:34.809Z,96732.03
2018-09-19T03:35:03.188Z,96722.05
2018-09-19T03:37:31.517Z,96722.05
2018-09-19T03:39:59.903Z,96716.08
2018-09-19T03:42:28.225Z,96722.86
2018-09-19T03:44:56.578Z,96722.05
2018-09-19T03:47:24.998Z,96734.80
2018-09-19T03:49:53.330Z,96727.48
2018-09-19T03:52:21.718Z,96724.81
2018-09-19T03:54:50.160Z,96725.63
2018-09-19T03:57:18.493Z,96728.83
2018-09-19T03:59:47.332Z,96734.50
2018-09-19T04:02:15.789Z,96736.84
2018-09-19T04:04:44.240Z,96740.53
2018-09-19T04:07:12.555Z,96736.23
2018-09-19T04:09:41.051Z,96734.46
2018-09-19T04:12:09.476Z,96735.99
2018-09-19T04:14:37.853Z,96742.77
2018-09-19T04:17:06.243Z,96741.52
2018-09-19T04:19:34.625Z,96734.73
2018-09-19T04:22:03.152Z,96737.27
2018-09-19T04:24:31.669Z,96742.00
2018-09-19T04:27:00.083Z,96740.55
2018-09-19T04:29:28.384Z,96742.98
2018-09-19T04:31:57.018Z,96742.94
2018-09-19T04:34:25.346Z,96743.22
2018-09-19T04:36:53.762Z,96744.94
2018-09-19T04:39:22.193Z,96749.73
2018-09-19T04:41:50.529Z,96746.52
2018-09-19T04:44:18.899Z,96747.20
2018-09-19T04:46:47.315Z,96752.30
2018-09-19T04:49:15.740Z,96758.02
2018-09-19T04:51:44.069Z,96754.01
2018-09-19T04:54:12.622Z,96756.27
2018-09-19T04:56:41.104Z,96764.22
2018-09-19T04:59:09.454Z,96761.87
2018-09-19T05:01:37.811Z,96771.01
2018-09-19T05:04:06.255Z,96772.67
2018-09-19T05:06:34.724Z,96773.30
2018-09-19T05:09:03.438Z,96784.42
2018-09-19T05:11:31.803Z,96773.15
2018-09-19T05:14:00.152Z,96771.88
2018-09-19T05:16:28.632Z,96772.09
2018-09-19T05:18:57.028Z,96772.72
2018-09-19T05:21:25.362Z,96772.23
2018-09-19T05:23:53.818Z,96776.97
2018-09-19T05:26:22.250Z,96781.30
2018-09-19T05:28:50.654Z,96782.42
2018-09-19T05:31:19.032Z,96782.56
2018-09-19T05:33:47.504Z,96783.81
2018-09-19T05:36:15.871Z,96793.80
2018-09-19T05:38:44.268Z,96786.92
2018-09-19T05:41:12.913Z,96788.17
2018-09-19T05:43:41.430Z,96788.83
2018-09-19T05:46:09.968Z,96780.00
2018-09-19T05:48:38.311Z,96788.64
2018-09-19T05:51:06.687Z,96789.27
2018-09-19T05:53:35.441Z,96787.14
2018-09-19T05:56:03.767Z,96796.70
2018-09-19T05:58:32.320Z,96797.14
2018-09-19T06:01:00.847Z,96797.57
2018-09-19T06:03:29.365Z,96799.97
2018-09-19T06:05:57.699Z,96806.98
2018-09-19T06:08:26.160Z,96799.45
2018-09-19T06:10:54.519Z,96792.36
2018-09-19T06:13:22.844Z,96798.63
2018-09-19T06:15:51.452Z,96797.83
2018-09-19T06:18:19.801Z,96807.72
2018-09-19T06:20:48.219Z,96810.02
2018-09-19T06:23:16.596Z,96815.98
2018-09-19T06:25:45.039Z,96811.78
2018-09-19T06:28:13.632Z,96810.35
2018-09-19T06:30:42.708Z,96812.94
2018-09-19T06:33:11.275Z,96817.05
2018-09-19T06:35:39.609Z,96821.20
2018-09-19T06:38:08.193Z,96821.48
2018-09-19T06:40:36.579Z,96821.10
2018-09-19T06:43:04.919Z,96819.57
2018-09-19T06:45:33.351Z,96828.32
2018-09-19T06:48:01.709Z,96839.55
2018-09-19T06:50:30.120Z,96831.56
2018-09-19T06:52:59.291Z,96830.95
2018-09-19T06:55:27.840Z,96832.19
2018-09-19T06:57:56.758Z,96843.75
2018-09-19T07:00:25.448Z,96837.80
2018-09-19T07:02:53.854Z,96827.72
2018-09-19T07:05:22.176Z,96837.52
2018-09-19T07:07:50.530Z,96833.00
2018-09-19T07:10:18.860Z,96828.16
2018-09-19T07:12:47.188Z,96833.22
2018-09-19T07:15:15.669Z,96851.23
2018-09-19T07:17:44.090Z,96832.72
2018-09-19T07:20:12.484Z,96829.44
2018-09-19T07:22:41.053Z,96850.53
2018-09-19T07:25:09.415Z,96841.08
2018-09-19T07:27:37.827Z,96847.05
2018-09-19T07:30:06.968Z,96839.92
2018-09-19T07:32:35.556Z,96844.14
2018-09-19T07:35:03.991Z,96850.77
2018-09-19T07:37:32.356Z,96838.28
2018-09-19T07:40:00.739Z,96866.49
2018-09-19T07:42:29.115Z,96847.23
2018-09-19T07:44:57.503Z,96861.55
2018-09-19T07:47:25.872Z,96869.91
2018-09-19T07:49:54.212Z,96863.00
2018-09-19T07:52:22.639Z,96866.73
2018-09-19T07:54:51.015Z,96879.52
2018-09-19T07:57:19.387Z,96875.29
2018-09-19T07:59:47.763Z,96878.09
2018-09-19T08:02:16.269Z,96871.78
2018-09-19T08:04:44.592Z,96878.09
2018-09-19T08:07:13.044Z,96875.61
2018-09-19T08:09:41.579Z,96871.45
2018-09-19T08:12:09.975Z,96872.97
2018-09-19T08:14:38.539Z,96874.08
2018-09-19T08:17:07.490Z,96874.25
2018-09-19T08:19:35.923Z,96874.82
2018-09-19T08:22:04.588Z,96880.47
2018-09-19T08:24:32.920Z,96879.32
2018-09-19T08:27:01.348Z,96880.94
2018-09-19T08:29:30.109Z,96885.59
2018-09-19T08:31:58.515Z,96881.20
2018-09-19T08:34:26.861Z,96879.39
2018-09-19T08:36:55.342Z,96885.35
2018-09-19T08:39:23.866Z,96883.13
2018-09-19T08:41:52.243Z,96879.85
2018-09-19T08:44:20.603Z,96884.14
2018-09-19T08:46:48.943Z,96878.81
2018-09-19T08:49:17.280Z,96878.33
2018-09-19T08:51:45.684Z,96882.71
2018-09-19T08:54:14.046Z,96883.42
2018-09-19T08:56:42.380Z,96883.06
2018-09-19T08:59:17.282Z,96879.77
2018-09-19T09:01:45.637Z,96879.20
2018-09-19T09:04:14.040Z,96876.54
2018-09-19T09:06:42.504Z,96874.69
2018-09-19T09:09:10.857Z,96870.88
2018-09-19T09:11:39.227Z,96876.50
2018-09-19T09:14:08.073Z,96873.19
2018-09-19T09:16:36.424Z,96868.78
2018-09-19T09:19:04.775Z,96874.17
2018-09-19T09:21:33.234Z,96876.15
2018-09-19T09:24:01.556Z,96866.20
2018-09-19T09:26:30.042Z,96863.66
2018-09-19T09:28:58.435Z,96864.41
2018-09-19T09:31:26.867Z,96876.37
2018-09-19T09:33:55.257Z,96866.47
2018-09-19T09:36:23.627Z,96875.19
2018-09-19T09:38:52.012Z,96868.13
2018-09-19T09:41:20.359Z,96868.21
2018-09-19T09:43:49.285Z,96867.06
2018-09-19T09:46:17.633Z,96868.19
2018-09-19T09:48:46.043Z,96865.08
2018-09-19T09:51:14.484Z,96864.99
2018-09-19T09:53:42.818Z,96854.23
2018-09-19T09:56:11.159Z,96851.47
2018-09-19T09:58:39.598Z,96852.55
2018-09-19T10:01:08.038Z,96853.31
2018-09-19T10:03:36.387Z,96855.96
2018-09-19T10:06:05.017Z,96856.91
2018-09-19T10:08:33.385Z,96860.23
2018-09-19T10:11:01.842Z,96850.02
2018-09-19T10:13:30.247Z,96845.97
2018-09-19T10:15:58.537Z,96835.03
2018-09-19T10:18:26.874Z,96843.69
2018-09-19T10:20:55.273Z,96838.63
2018-09-19T10:23:23.608Z,96844.76
2018-09-19T10:25:52.040Z,96840.24
2018-09-19T10:28:20.424Z,96839.47
2018-09-19T10:30:49.443Z,96837.35
2018-09-19T10:33:17.827Z,96833.69
2018-09-19T10:35:46.443Z,96827.33
2018-09-19T10:38:14.827Z,96829.09
2018-09-19T10:40:43.211Z,96832.64
2018-09-19T10:43:11.615Z,96825.59
2018-09-19T10:45:39.957Z,96826.08
2018-09-19T10:48:08.447Z,96823.12
2018-09-19T10:50:36.823Z,96824.16
2018-09-19T10:53:05.139Z,96822.94
2018-09-19T10:55:33.479Z,96828.27
2018-09-19T10:58:01.863Z,96823.44
2018-09-19T11:00:30.185Z,96820.16
2018-09-19T11:02:58.504Z,96823.47
2018-09-19T11:05:26.920Z,96823.41
2018-09-19T11:07:55.369Z,96813.91
2018-09-19T11:10:23.696Z,96825.94
2018-09-19T11:12:52.166Z,96822.31
2018-09-19T11:15:20.500Z,96814.84
2018-09-19T11:17:48.820Z,96815.27
2018-09-19T11:20:17.272Z,96815.43
2018-09-19T11:22:45.584Z,96810.03
2018-09-19T11:25:13.950Z,96811.17
2018-09-19T11:27:42.384Z,96808.55
2018-09-19T11:30:10.836Z,96809.44
2018-09-19T11:32:39.180Z,96803.92
2018-09-19T11:35:07.632Z,96808.61
2018-09-19T11:37:36.017Z,96806.83
2018-09-19T11:40:04.384Z,96809.92
2018-09-19T11:42:32.870Z,96804.54
2018-09-19T11:45:01.213Z,96804.61
2018-09-19T11:47:29.547Z,96805.81
2018-09-19T11:49:57.928Z,96799.75
2018-09-19T11:52:26.262Z,96802.31
2018-09-19T11:54:54.596Z,96805.92
2018-09-19T11:57:22.984Z,96797.59
2018-09-19T11:59:51.332Z,96800.87
2018-09-19T12:02:19.658Z,96800.19
2018-09-19T12:04:48.126Z,96798.58
2018-09-19T12:07:16.696Z,96797.55
2018-09-19T12:09:45.005Z,96793.05
2018-09-19T12:12:13.368Z,96789.39
2018-09-19T12:14:41.699Z,96785.97
2018-09-19T12:17:10.032Z,96784.78
2018-09-19T12:19:38.398Z,96783.47
2018-09-19T12:22:06.756Z,96785.72
2018-09-19T12:24:35.108Z,96787.94
2018-09-19T12:27:03.603Z,96782.02
2018-09-19T12:29:31.967Z,96777.73
2018-09-19T12:32:00.307Z,96782.41
2018-09-19T12:34:28.708Z,96778.33
2018-09-19T12:36:57.056Z,96776.72
2018-09-19T12:39:25.438Z,96768.09
2018-09-19T12:41:53.791Z,96763.28
2018-09-19T12:44:22.132Z,96763.63
2018-09-19T12:46:50.463Z,96762.83
2018-09-19T12:49:18.901Z,96761.76
2018-09-19T12:51:47.252Z,96766.95
2018-09-19T12:54:15.651Z,96762.88
2018-09-19T12:56:44.603Z,96764.78
2018-09-19T12:59:13.036Z,96758.55
2018-09-19T13:01:41.403Z,96754.78
2018-09-19T13:04:09.785Z,96753.42
2018-09-19T13:06:38.170Z,96750.71
2018-09-19T13:09:09.433Z,96751.00
2018-09-19T13:11:38.186Z,96750.46
2018-09-19T13:14:06.580Z,96750.45
2018-09-19T13:16:34.964Z,96750.72
2018-09-19T13:19:03.482Z,96751.81
2018-09-19T13:21:31.813Z,96744.20
2018-09-19T13:24:00.174Z,96745.00
2018-09-19T13:26:28.614Z,96747.99
2018-09-19T13:28:56.935Z,96739.29
2018-09-19T13:31:25.277Z,96743.39
2018-09-19T13:33:53.667Z,96735.21
2018-09-19T13:36:21.990Z,96747.19
2018-09-19T13:38:50.339Z,96750.19
2018-09-19T13:41:18.814Z,96736.56
2018-09-19T13:43:47.157Z,96741.20
2018-09-19T13:46:15.541Z,96740.64
2018-09-19T13:48:46.550Z,96737.91
2018-09-19T13:51:19.826Z,96736.29
2018-09-19T13:53:48.269Z,96733.05
2018-09-19T13:56:16.632Z,96731.39
2018-09-19T13:58:45.036Z,96733.02
2018-09-19T14:01:13.444Z,96730.54
2018-09-19T14:03:41.830Z,96729.72
2018-09-19T14:06:10.194Z,96731.34
2018-09-19T14:08:38.720Z,96726.20
2018-09-19T14:11:07.176Z,96727.56
2018-09-19T14:13:35.521Z,96726.48
2018-09-19T14:16:03.988Z,96721.31
2018-09-19T14:18:32.405Z,96724.05
2018-09-19T14:21:00.893Z,96719.69
2018-09-19T14:23:29.278Z,96706.07
2018-09-19T14:25:57.714Z,96723.75
2018-09-19T14:28:26.124Z,96710.96
2018-09-19T14:30:55.111Z,96711.23
2018-09-19T14:33:23.597Z,96727.85
2018-09-19T14:35:52.167Z,96715.05
2018-09-19T14:38:20.419Z,96719.95
2018-09-19T14:40:48.777Z,96720.22
2018-09-19T14:43:17.208Z,96714.51
2018-09-19T14:45:45.867Z,96715.61
2018-09-19T14:48:14.221Z,96712.64
2018-09-19T14:50:42.547Z,96704.45
2018-09-19T14:53:10.931Z,96706.88
2018-09-19T14:55:39.323Z,96699.83
2018-09-19T14:58:07.651Z,96704.99
2018-09-19T15:00:36.610Z,96704.70
2018-09-19T15:03:05.248Z,96702.81
2018-09-19T15:05:33.752Z,96706.63
2018-09-19T15:08:02.155Z,96703.08
2018-09-19T15:10:30.580Z,96706.91
2018-09-19T15:12:58.912Z,96701.99
2018-09-19T15:15:27.432Z,96692.23
2018-09-19T15:17:55.805Z,96701.45
2018-09-19T15:20:24.200Z,96701.73
2018-09-19T15:22:52.876Z,96698.22
2018-09-19T15:25:22.201Z,96700.13
2018-09-19T15:27:50.641Z,96704.73
2018-09-19T15:30:19.256Z,96701.74
2018-09-19T15:32:47.689Z,96704.73
2018-09-19T15:35:16.140Z,96708.28
2018-09-19T15:37:44.520Z,96707.73
2018-09-19T15:40:12.919Z,96706.92
2018-09-19T15:42:41.308Z,96702.84
2018-09-19T15:45:09.749Z,96706.39
2018-09-19T15:47:38.279Z,96708.29
2018-09-19T15:50:06.752Z,96710.42
2018-09-19T15:52:35.183Z,96706.05
2018-09-19T15:55:03.807Z,96713.12
2018-09-19T15:57:32.473Z,96709.83
2018-09-19T16:00:00.972Z,96710.91
2018-09-19T16:02:29.521Z,96716.06
2018-09-19T16:04:57.887Z,96710.33
2018-09-19T16:07:26.359Z,96718.73
2018-09-19T16:09:54.740Z,96717.35
2018-09-19T16:12:23.184Z,96716.22
2018-09-19T16:14:51.600Z,96719.72
2018-09-19T16:17:20.005Z,96716.19
2018-09-19T16:19:48.356Z,96725.38
2018-09-19T16:22:16.783Z,96723.43
2018-09-19T16:24:45.157Z,96729.95
2018-09-19T16:27:13.605Z,96730.44
2018-09-19T16:29:42.836Z,96732.34
2018-09-19T16:32:11.175Z,96734.75
2018-09-19T16:34:39.520Z,96736.06
2018-09-19T16:37:07.960Z,96737.38
2018-09-19T16:39:36.312Z,96732.42
2018-09-19T16:42:04.855Z,96731.56
2018-09-19T16:44:33.273Z,96734.22
2018-09-19T16:47:01.660Z,96733.36
2018-09-19T16:49:30.008Z,96735.75
2018-09-19T16:51:58.373Z,96735.70
2018-09-19T16:54:26.728Z,96735.14
2018-09-19T16:56:55.088Z,96739.45
2018-09-19T16:59:23.605Z,96739.10
2018-09-19T17:01:52.023Z,96739.87
2018-09-19T17:04:20.455Z,96742.53
2018-09-19T17:06:49.274Z,96741.88
2018-09-19T17:09:17.671Z,96739.89
2018-09-19T17:11:46.228Z,96743.56
2018-09-19T17:14:14.652Z,96740.49
2018-09-19T17:16:42.992Z,96744.17
2018-09-19T17:19:11.387Z,96742.16
2018-09-19T17:21:39.864Z,96743.12
2018-09-19T17:24:08.196Z,96745.70
2018-09-19T17:26:36.540Z,96749.05
2018-09-19T17:29:05.097Z,96753.40
2018-09-19T17:31:33.515Z,96751.88
2018-09-19T17:34:01.849Z,96754.16
2018-09-19T17:36:30.828Z,96753.02
2018-09-19T17:38:59.256Z,96757.65
2018-09-19T17:41:27.690Z,96754.49
2018-09-19T17:43:56.135Z,96766.06
2018-09-19T17:46:24.603Z,96768.09
2018-09-19T17:48:53.604Z,96770.88
2018-09-19T17:51:22.108Z,96776.15
2018-09-19T17:53:50.544Z,96777.53
2018-09-19T17:56:19.044Z,96781.34
2018-09-19T17:58:47.688Z,96776.14
2018-09-19T18:01:16.105Z,96780.02
2018-09-19T18:03:44.468Z,96778.34
2018-09-19T18:06:13.094Z,96776.10
2018-09-19T18:08:41.515Z,96788.22
2018-09-19T18:11:09.884Z,96784.87
2018-09-19T18:13:38.422Z,96786.73
2018-09-19T18:16:06.890Z,96780.67
2018-09-19T18:18:35.888Z,96789.81
2018-09-19T18:21:04.380Z,96790.82
2018-09-19T18:23:32.848Z,96790.44
2018-09-19T18:26:01.277Z,96795.72
2018-09-19T18:28:29.800Z,96795.09
2018-09-19T18:30:58.328Z,96792.05
2018-09-19T18:33:26.737Z,96797.88
2018-09-19T18:35:55.256Z,96797.75
2018-09-19T18:38:23.696Z,96800.95
2018-09-19T18:40:52.213Z,96798.89
2018-09-19T18:43:20.599Z,96804.67
2018-09-19T18:45:49.123Z,96797.00
2018-09-19T18:48:17.516Z,96803.11
2018-09-19T18:50:45.984Z,96804.57
2018-09-19T18:53:14.357Z,96801.70
2018-09-19T18:55:42.736Z,96806.64
2018-09-19T18:58:11.244Z,96811.01
2018-09-19T19:00:39.676Z,96807.50
2018-09-19T19:03:08.064Z,96813.88
2018-09-19T19:05:36.508Z,96814.55
2018-09-19T19:08:04.978Z,96815.12
2018-09-19T19:10:33.320Z,96812.09
2018-09-19T19:13:01.851Z,96812.23
2018-09-19T19:15:30.211Z,96810.47
2018-09-19T19:17:58.558Z,96814.52
2018-09-19T19:20:26.956Z,96811.92
2018-09-19T19:22:55.272Z,96816.33
2018-09-19T19:25:23.700Z,96816.45
2018-09-19T19:27:52.176Z,96815.60
2018-09-19T19:30:20.720Z,96816.14
2018-09-19T19:32:49.028Z,96822.53
2018-09-19T19:35:17.441Z,96815.16
2018-09-19T19:37:45.886Z,96822.59
2018-09-19T19:40:14.147Z,96823.05
2018-09-19T19:42:42.506Z,96816.92
2018-09-19T19:45:11.851Z,96819.20
2018-09-19T19:47:40.752Z,96821.47
2018-09-19T19:50:09.315Z,96820.12
2018-09-19T19:52:37.871Z,96820.28
2018-09-19T19:55:06.253Z,96824.71
2018-09-19T19:57:34.875Z,96820.52
2018-09-19T20:00:03.265Z,96821.97
2018-09-19T20:02:31.647Z,96821.66
2018-09-19T20:05:00.216Z,96822.67
2018-09-19T20:07:28.583Z,96827.96
2018-09-19T20:09:57.035Z,96830.37
2018-09-19T20:12:25.439Z,96830.59
2018-09-19T20:14:53.889Z,96830.59
2018-09-19T20:17:22.229Z,96831.19
2018-09-19T20:19:50.625Z,96827.00
2018-09-19T20:22:18.943Z,96827.69
2018-09-19T20:24:47.343Z,96830.31
2018-09-19T20:27:15.743Z,96827.97
2018-09-19T20:29:44.061Z,96825.88
2018-09-19T20:32:12.481Z,96817.58
2018-09-19T20:34:41.073Z,96831.70
2018-09-19T20:37:09.529Z,96824.83
2018-09-19T20:39:37.982Z,96827.67
2018-09-19T20:42:06.438Z,96828.17
2018-09-19T20:44:34.775Z,96824.13
2018-09-19T20:47:03.269Z,96829.89
2018-09-19T20:49:31.763Z,96825.11
2018-09-19T20:52:00.147Z,96830.95
2018-09-19T20:54:28.564Z,96823.32
2018-09-19T20:56:57.027Z,96822.94
2018-09-19T20:59:25.407Z,96816.74
2018-09-19T21:01:53.831Z,96822.72
2018-09-19T21:04:22.297Z,96819.88
2018-09-19T21:06:50.691Z,96823.63
2018-09-19T21:09:19.075Z,96819.59
2018-09-19T21:11:47.479Z,96824.98
2018-09-19T21:14:15.787Z,96819.96
2018-09-19T21:16:44.409Z,96818.00
2018-09-19T21:19:12.767Z,96814.05
2018-09-19T21:21:41.213Z,96820.59
2018-09-19T21:24:09.639Z,96823.43
2018-09-19T21:26:38.063Z,96824.39
2018-09-19T21:29:06.443Z,96824.84
2018-09-19T21:31:34.899Z,96826.26
2018-09-19T21:34:03.455Z,96821.41
2018-09-19T21:36:31.796Z,96820.88
2018-09-19T21:39:00.117Z,96826.05
2018-09-19T21:41:28.513Z,96822.61
2018-09-19T21:43:56.891Z,96820.36
2018-09-19T21:46:25.308Z,96823.92
2018-09-19T21:48:53.761Z,96823.18
2018-09-19T21:51:22.080Z,96824.27
2018-09-19T21:53:50.405Z,96828.33
2018-09-19T21:56:18.834Z,96822.28
2018-09-19T21:58:47.260Z,96822.28
2018-09-19T22:01:20.020Z,96823.70
2018-09-19T22:03:48.340Z,96829.39
2018-09-19T22:06:16.688Z,96827.52
2018-09-19T22:08:45.096Z,96833.62
2018-09-19T22:11:13.548Z,96826.20
2018-09-19T22:13:41.880Z,96824.50
2018-09-19T22:16:10.260Z,96822.44
2018-09-19T22:18:38.884Z,96824.34
2018-09-19T22:21:07.220Z,96824.31
2018-09-19T22:23:35.719Z,96820.23
2018-09-19T22:26:04.138Z,96821.48
2018-09-19T22:28:32.577Z,96819.73
2018-09-19T22:31:01.038Z,96823.81
2018-09-19T22:33:29.459Z,96823.41
2018-09-19T22:35:57.859Z,96824.44
2018-09-19T22:38:26.272Z,96820.53
2018-09-19T22:40:54.589Z,96817.23
2018-09-19T22:43:22.922Z,96818.00
2018-09-19T22:45:51.290Z,96818.59
2018-09-19T22:48:19.616Z,96813.65
2018-09-19T22:50:48.443Z,96815.39
2018-09-19T22:53:23.568Z,96817.41
2018-09-19T22:55:51.897Z,96817.73
2018-09-19T22:58:20.320Z,96813.59
2018-09-19T23:00:48.723Z,96812.30
2018-09-19T23:03:17.180Z,96811.67
2018-09-19T23:05:45.663Z,96811.55
2018-09-19T23:08:14.244Z,96808.05
2018-09-19T23:10:42.578Z,96812.08
2018-09-19T23:13:10.999Z,96805.98
2018-09-19T23:15:39.569Z,96807.64
2018-09-19T23:18:07.953Z,96803.44
2018-09-19T23:20:36.373Z,96803.20
2018-09-19T23:23:05.003Z,96801.85
2018-09-19T23:25:33.664Z,96799.06
2018-09-19T23:28:02.074Z,96798.98
2018-09-19T23:30:30.439Z,96799.80
2018-09-19T23:32:58.843Z,96800.73
2018-09-19T23:35:27.180Z,96802.21
2018-09-19T23:37:55.735Z,96799.34
2018-09-19T23:40:24.064Z,96789.45
2018-09-19T23:42:52.498Z,96799.78
2018-09-19T23:45:21.140Z,96798.64
2018-09-19T23:47:49.533Z,96799.06
2018-09-19T23:50:17.913Z,96795.77
2018-09-19T23:52:46.318Z,96790.33
2018-09-19T23:55:14.824Z,96788.66
2018-09-19T23:57:43.261Z,96789.11
